sensor_id;sensor_type;location;lat;lon;timestamp;temperature;humidity
1429;DHT22;708;51.442;7.016;2022-09-02T00:01:25;17.60;99.90
1429;DHT22;708;51.442;7.016;2022-09-02T00:03:55;17.60;99.90
1429;DHT22;708;51.442;7.016;2022-09-02T00:06:23;17.50;99.90
1429;DHT22;708;51.442;7.016;2022-09-02T00:08:50;17.50;99.90
1429;DHT22;708;51.442;7.016;2022-09-02T00:11:20;17.50;99.90
1429;DHT22;708;51.442;7.016;2022-09-02T00:13:50;17.50;99.90
1429;DHT22;708;51.442;7.016;2022-09-02T00:16:19;17.40;99.90
1429;DHT22;708;51.442;7.016;2022-09-02T00:18:48;17.40;99.90
1429;DHT22;708;51.442;7.016;2022-09-02T00:21:17;17.40;99.90
1429;DHT22;708;51.442;7.016;2022-09-02T00:23:44;17.40;99.90
1429;DHT22;708;51.442;7.016;2022-09-02T00:26:12;17.40;99.90
1429;DHT22;708;51.442;7.016;2022-09-02T00:28:39;17.40;99.90
1429;DHT22;708;51.442;7.016;2022-09-02T00:31:07;17.40;99.90
1429;DHT22;708;51.442;7.016;2022-09-02T00:33:34;17.40;99.90
1429;DHT22;708;51.442;7.016;2022-09-02T00:36:02;17.40;99.90
1429;DHT22;708;51.442;7.016;2022-09-02T00:38:30;17.40;99.90
1429;DHT22;708;51.442;7.016;2022-09-02T00:40:59;17.30;99.90
1429;DHT22;708;51.442;7.016;2022-09-02T00:43:40;17.30;99.90
1429;DHT22;708;51.442;7.016;2022-09-02T00:46:10;17.30;99.90
1429;DHT22;708;51.442;7.016;2022-09-02T00:48:42;17.20;99.90
1429;DHT22;708;51.442;7.016;2022-09-02T00:51:11;17.20;99.90
1429;DHT22;708;51.442;7.016;2022-09-02T00:53:39;17.20;99.90
1429;DHT22;708;51.442;7.016;2022-09-02T00:56:09;17.10;99.90
1429;DHT22;708;51.442;7.016;2022-09-02T00:58:40;17.20;99.90
1429;DHT22;708;51.442;7.016;2022-09-02T01:01:11;17.10;99.90
1429;DHT22;708;51.442;7.016;2022-09-02T01:03:38;17.10;99.90
1429;DHT22;708;51.442;7.016;2022-09-02T01:06:10;17.10;99.90
1429;DHT22;708;51.442;7.016;2022-09-02T01:08:43;17.10;99.90
1429;DHT22;708;51.442;7.016;2022-09-02T01:11:14;17.10;99.90
1429;DHT22;708;51.442;7.016;2022-09-02T01:13:44;17.10;99.90
1429;DHT22;708;51.442;7.016;2022-09-02T01:16:16;17.10;99.90
1429;DHT22;708;51.442;7.016;2022-09-02T01:18:50;17.00;99.90
1429;DHT22;708;51.442;7.016;2022-09-02T01:21:18;17.00;99.90
1429;DHT22;708;51.442;7.016;2022-09-02T01:23:47;17.00;99.90
1429;DHT22;708;51.442;7.016;2022-09-02T01:26:15;16.90;99.90
1429;DHT22;708;51.442;7.016;2022-09-02T01:28:41;17.00;99.90
1429;DHT22;708;51.442;7.016;2022-09-02T01:31:08;17.00;99.90
1429;DHT22;708;51.442;7.016;2022-09-02T01:33:35;17.00;99.90
1429;DHT22;708;51.442;7.016;2022-09-02T01:36:02;16.90;99.90
1429;DHT22;708;51.442;7.016;2022-09-02T01:38:30;16.90;99.90
1429;DHT22;708;51.442;7.016;2022-09-02T01:40:58;17.00;99.90
1429;DHT22;708;51.442;7.016;2022-09-02T01:43:28;17.00;99.90
1429;DHT22;708;51.442;7.016;2022-09-02T01:45:57;17.00;99.90
1429;DHT22;708;51.442;7.016;2022-09-02T01:48:24;17.00;99.90
1429;DHT22;708;51.442;7.016;2022-09-02T01:50:56;16.90;99.90
1429;DHT22;708;51.442;7.016;2022-09-02T01:53:23;16.90;99.90
1429;DHT22;708;51.442;7.016;2022-09-02T01:55:53;16.90;99.90
1429;DHT22;708;51.442;7.016;2022-09-02T01:58:22;16.90;99.90
1429;DHT22;708;51.442;7.016;2022-09-02T02:00:51;16.80;99.90
1429;DHT22;708;51.442;7.016;2022-09-02T02:03:18;16.80;99.90
1429;DHT22;708;51.442;7.016;2022-09-02T02:05:45;16.80;99.90
1429;DHT22;708;51.442;7.016;2022-09-02T02:08:12;16.70;99.90
1429;DHT22;708;51.442;7.016;2022-09-02T02:10:40;16.60;99.90
1429;DHT22;708;51.442;7.016;2022-09-02T02:13:08;16.70;99.90
1429;DHT22;708;51.442;7.016;2022-09-02T02:15:37;16.70;99.90
1429;DHT22;708;51.442;7.016;2022-09-02T02:18:05;16.70;99.90
1429;DHT22;708;51.442;7.016;2022-09-02T02:20:35;16.60;99.90
1429;DHT22;708;51.442;7.016;2022-09-02T02:23:02;16.50;99.90
1429;DHT22;708;51.442;7.016;2022-09-02T02:25:30;16.50;99.90
1429;DHT22;708;51.442;7.016;2022-09-02T02:27:59;16.50;99.90
1429;DHT22;708;51.442;7.016;2022-09-02T02:30:26;16.40;99.90
1429;DHT22;708;51.442;7.016;2022-09-02T02:32:55;16.50;99.90
1429;DHT22;708;51.442;7.016;2022-09-02T02:35:22;16.40;99.90
1429;DHT22;708;51.442;7.016;2022-09-02T02:37:50;16.40;99.90
1429;DHT22;708;51.442;7.016;2022-09-02T02:40:20;16.40;99.90
1429;DHT22;708;51.442;7.016;2022-09-02T02:42:49;16.40;99.90
1429;DHT22;708;51.442;7.016;2022-09-02T02:45:17;16.40;99.90
1429;DHT22;708;51.442;7.016;2022-09-02T02:47:48;16.30;99.90
1429;DHT22;708;51.442;7.016;2022-09-02T02:50:18;16.30;99.90
1429;DHT22;708;51.442;7.016;2022-09-02T02:52:46;16.30;99.90
1429;DHT22;708;51.442;7.016;2022-09-02T02:55:14;16.30;99.90
1429;DHT22;708;51.442;7.016;2022-09-02T02:57:42;16.20;99.90
1429;DHT22;708;51.442;7.016;2022-09-02T03:00:13;16.20;99.90
1429;DHT22;708;51.442;7.016;2022-09-02T03:02:42;16.20;99.90
1429;DHT22;708;51.442;7.016;2022-09-02T03:05:10;16.20;99.90
1429;DHT22;708;51.442;7.016;2022-09-02T03:07:41;16.20;99.90
1429;DHT22;708;51.442;7.016;2022-09-02T03:10:12;16.20;99.90
1429;DHT22;708;51.442;7.016;2022-09-02T03:12:39;16.10;99.90
1429;DHT22;708;51.442;7.016;2022-09-02T03:15:09;16.10;99.90
1429;DHT22;708;51.442;7.016;2022-09-02T03:17:37;16.10;99.90
1429;DHT22;708;51.442;7.016;2022-09-02T03:20:05;16.10;99.90
1429;DHT22;708;51.442;7.016;2022-09-02T03:22:32;16.20;99.90
1429;DHT22;708;51.442;7.016;2022-09-02T03:25:05;16.20;99.90
1429;DHT22;708;51.442;7.016;2022-09-02T03:27:32;16.20;99.90
1429;DHT22;708;51.442;7.016;2022-09-02T03:30:00;16.20;99.90
1429;DHT22;708;51.442;7.016;2022-09-02T03:32:27;16.30;99.90
1429;DHT22;708;51.442;7.016;2022-09-02T03:34:57;16.30;99.90
1429;DHT22;708;51.442;7.016;2022-09-02T03:37:24;16.30;99.90
1429;DHT22;708;51.442;7.016;2022-09-02T03:39:53;16.30;99.90
1429;DHT22;708;51.442;7.016;2022-09-02T03:42:22;16.20;99.90
1429;DHT22;708;51.442;7.016;2022-09-02T03:44:49;16.20;99.90
1429;DHT22;708;51.442;7.016;2022-09-02T03:47:19;16.10;99.90
1429;DHT22;708;51.442;7.016;2022-09-02T03:49:48;16.10;99.90
1429;DHT22;708;51.442;7.016;2022-09-02T03:52:17;16.10;99.90
1429;DHT22;708;51.442;7.016;2022-09-02T03:54:44;16.10;99.90
1429;DHT22;708;51.442;7.016;2022-09-02T03:57:10;16.10;99.90
1429;DHT22;708;51.442;7.016;2022-09-02T03:59:39;16.10;99.90
1429;DHT22;708;51.442;7.016;2022-09-02T04:02:07;16.10;99.90
1429;DHT22;708;51.442;7.016;2022-09-02T04:04:34;16.10;99.90
1429;DHT22;708;51.442;7.016;2022-09-02T04:07:01;16.00;99.90
1429;DHT22;708;51.442;7.016;2022-09-02T04:09:28;16.10;99.90
1429;DHT22;708;51.442;7.016;2022-09-02T04:11:55;16.10;99.90
1429;DHT22;708;51.442;7.016;2022-09-02T04:14:22;16.10;99.90
1429;DHT22;708;51.442;7.016;2022-09-02T04:16:50;16.20;99.90
1429;DHT22;708;51.442;7.016;2022-09-02T04:19:17;16.20;99.90
1429;DHT22;708;51.442;7.016;2022-09-02T04:21:44;16.20;99.90
1429;DHT22;708;51.442;7.016;2022-09-02T04:24:12;16.10;99.90
1429;DHT22;708;51.442;7.016;2022-09-02T04:26:39;16.10;99.90
1429;DHT22;708;51.442;7.016;2022-09-02T04:29:06;16.10;99.90
1429;DHT22;708;51.442;7.016;2022-09-02T04:31:35;16.20;99.90
1429;DHT22;708;51.442;7.016;2022-09-02T04:34:04;16.10;99.90
1429;DHT22;708;51.442;7.016;2022-09-02T04:36:33;15.90;99.90
1429;DHT22;708;51.442;7.016;2022-09-02T04:39:00;16.10;99.90
1429;DHT22;708;51.442;7.016;2022-09-02T04:41:29;16.10;99.90
1429;DHT22;708;51.442;7.016;2022-09-02T04:43:58;16.10;99.90
1429;DHT22;708;51.442;7.016;2022-09-02T04:46:25;16.00;99.90
1429;DHT22;708;51.442;7.016;2022-09-02T04:48:56;16.00;99.90
1429;DHT22;708;51.442;7.016;2022-09-02T04:51:25;16.00;99.90
1429;DHT22;708;51.442;7.016;2022-09-02T04:53:53;16.00;99.90
1429;DHT22;708;51.442;7.016;2022-09-02T04:56:22;16.00;99.90
1429;DHT22;708;51.442;7.016;2022-09-02T04:58:49;16.00;99.90
1429;DHT22;708;51.442;7.016;2022-09-02T05:01:18;16.00;99.90
1429;DHT22;708;51.442;7.016;2022-09-02T05:03:46;16.00;99.90
1429;DHT22;708;51.442;7.016;2022-09-02T05:06:15;16.10;99.90
1429;DHT22;708;51.442;7.016;2022-09-02T05:08:45;16.10;99.90
1429;DHT22;708;51.442;7.016;2022-09-02T05:11:15;16.20;99.90
1429;DHT22;708;51.442;7.016;2022-09-02T05:13:43;16.20;99.90
1429;DHT22;708;51.442;7.016;2022-09-02T05:16:14;16.20;99.90
1429;DHT22;708;51.442;7.016;2022-09-02T05:18:43;16.20;99.90
1429;DHT22;708;51.442;7.016;2022-09-02T05:21:11;16.20;99.90
1429;DHT22;708;51.442;7.016;2022-09-02T05:23:38;16.30;99.90
1429;DHT22;708;51.442;7.016;2022-09-02T05:26:08;16.40;99.90
1429;DHT22;708;51.442;7.016;2022-09-02T05:28:35;16.50;99.90
1429;DHT22;708;51.442;7.016;2022-09-02T05:31:05;16.70;99.90
1429;DHT22;708;51.442;7.016;2022-09-02T05:33:33;16.70;99.90
1429;DHT22;708;51.442;7.016;2022-09-02T05:36:02;16.70;99.90
1429;DHT22;708;51.442;7.016;2022-09-02T05:38:29;16.70;99.90
1429;DHT22;708;51.442;7.016;2022-09-02T05:40:57;16.70;99.90
1429;DHT22;708;51.442;7.016;2022-09-02T05:43:39;16.70;99.90
1429;DHT22;708;51.442;7.016;2022-09-02T05:46:08;16.80;99.90
1429;DHT22;708;51.442;7.016;2022-09-02T05:48:37;16.80;99.90
1429;DHT22;708;51.442;7.016;2022-09-02T05:51:22;16.80;99.90
1429;DHT22;708;51.442;7.016;2022-09-02T05:53:51;16.70;99.90
1429;DHT22;708;51.442;7.016;2022-09-02T05:56:18;16.70;99.90
1429;DHT22;708;51.442;7.016;2022-09-02T05:58:49;16.80;99.90
1429;DHT22;708;51.442;7.016;2022-09-02T06:01:18;17.20;99.90
1429;DHT22;708;51.442;7.016;2022-09-02T06:03:45;17.50;99.90
1429;DHT22;708;51.442;7.016;2022-09-02T06:06:15;17.80;99.90
1429;DHT22;708;51.442;7.016;2022-09-02T06:08:43;18.00;99.90
1429;DHT22;708;51.442;7.016;2022-09-02T06:11:11;18.10;99.90
1429;DHT22;708;51.442;7.016;2022-09-02T06:13:40;18.20;99.90
1429;DHT22;708;51.442;7.016;2022-09-02T06:16:12;19.00;99.90
1429;DHT22;708;51.442;7.016;2022-09-02T06:18:39;20.10;99.90
1429;DHT22;708;51.442;7.016;2022-09-02T06:21:06;21.80;99.90
1429;DHT22;708;51.442;7.016;2022-09-02T06:23:36;23.50;96.50
1429;DHT22;708;51.442;7.016;2022-09-02T06:26:03;25.40;92.80
1429;DHT22;708;51.442;7.016;2022-09-02T06:28:31;26.70;87.60
1429;DHT22;708;51.442;7.016;2022-09-02T06:31:04;26.80;84.20
1429;DHT22;708;51.442;7.016;2022-09-02T06:33:33;26.00;83.10
1429;DHT22;708;51.442;7.016;2022-09-02T06:35:59;25.20;84.10
1429;DHT22;708;51.442;7.016;2022-09-02T06:38:26;24.60;85.20
1429;DHT22;708;51.442;7.016;2022-09-02T06:40:54;23.90;86.60
1429;DHT22;708;51.442;7.016;2022-09-02T06:43:21;23.30;88.20
1429;DHT22;708;51.442;7.016;2022-09-02T06:45:51;22.70;90.10
1429;DHT22;708;51.442;7.016;2022-09-02T06:48:18;22.20;90.80
1429;DHT22;708;51.442;7.016;2022-09-02T06:50:46;22.00;91.50
1429;DHT22;708;51.442;7.016;2022-09-02T06:53:13;21.60;92.00
1429;DHT22;708;51.442;7.016;2022-09-02T06:55:45;21.40;92.80
1429;DHT22;708;51.442;7.016;2022-09-02T06:58:13;21.10;93.20
1429;DHT22;708;51.442;7.016;2022-09-02T07:00:41;20.90;93.80
1429;DHT22;708;51.442;7.016;2022-09-02T07:03:09;21.90;94.10
1429;DHT22;708;51.442;7.016;2022-09-02T07:06:04;23.70;91.80
1429;DHT22;708;51.442;7.016;2022-09-02T07:08:34;24.30;90.00
1429;DHT22;708;51.442;7.016;2022-09-02T07:11:01;24.10;88.90
1429;DHT22;708;51.442;7.016;2022-09-02T07:13:31;23.70;88.90
1429;DHT22;708;51.442;7.016;2022-09-02T07:15:57;23.20;89.80
1429;DHT22;708;51.442;7.016;2022-09-02T07:18:25;22.70;90.70
1429;DHT22;708;51.442;7.016;2022-09-02T07:20:52;22.40;91.00
1429;DHT22;708;51.442;7.016;2022-09-02T07:23:21;22.10;91.40
1429;DHT22;708;51.442;7.016;2022-09-02T07:25:48;21.80;91.90
1429;DHT22;708;51.442;7.016;2022-09-02T07:28:15;21.60;92.40
1429;DHT22;708;51.442;7.016;2022-09-02T07:30:42;21.50;92.70
1429;DHT22;708;51.442;7.016;2022-09-02T07:33:10;21.50;93.20
1429;DHT22;708;51.442;7.016;2022-09-02T07:35:39;21.50;93.40
1429;DHT22;708;51.442;7.016;2022-09-02T07:38:07;21.60;93.40
1429;DHT22;708;51.442;7.016;2022-09-02T07:40:36;21.90;93.40
1429;DHT22;708;51.442;7.016;2022-09-02T07:43:04;22.20;93.30
1429;DHT22;708;51.442;7.016;2022-09-02T07:45:31;22.70;92.70
1429;DHT22;708;51.442;7.016;2022-09-02T07:47:59;22.90;92.80
1429;DHT22;708;51.442;7.016;2022-09-02T07:50:27;23.20;92.50
1429;DHT22;708;51.442;7.016;2022-09-02T07:52:55;23.40;92.00
1429;DHT22;708;51.442;7.016;2022-09-02T07:55:23;23.60;91.40
1429;DHT22;708;51.442;7.016;2022-09-02T07:57:52;23.70;91.30
1429;DHT22;708;51.442;7.016;2022-09-02T08:00:20;23.80;91.30
1429;DHT22;708;51.442;7.016;2022-09-02T08:02:51;23.80;91.40
1429;DHT22;708;51.442;7.016;2022-09-02T08:05:19;24.60;91.00
1429;DHT22;708;51.442;7.016;2022-09-02T08:07:46;25.60;89.70
1429;DHT22;708;51.442;7.016;2022-09-02T08:10:13;26.50;87.10
1429;DHT22;708;51.442;7.016;2022-09-02T08:12:42;26.80;85.40
1429;DHT22;708;51.442;7.016;2022-09-02T08:15:14;26.70;85.50
1429;DHT22;708;51.442;7.016;2022-09-02T08:17:41;26.60;84.20
1429;DHT22;708;51.442;7.016;2022-09-02T08:20:10;26.30;84.70
1429;DHT22;708;51.442;7.016;2022-09-02T08:22:37;26.10;85.40
1429;DHT22;708;51.442;7.016;2022-09-02T08:25:05;26.00;86.10
1429;DHT22;708;51.442;7.016;2022-09-02T08:27:33;26.60;85.50
1429;DHT22;708;51.442;7.016;2022-09-02T08:30:01;27.60;83.50
1429;DHT22;708;51.442;7.016;2022-09-02T08:32:33;28.40;81.30
1429;DHT22;708;51.442;7.016;2022-09-02T08:35:02;29.10;79.30
1429;DHT22;708;51.442;7.016;2022-09-02T08:37:31;29.70;77.60
1429;DHT22;708;51.442;7.016;2022-09-02T08:39:58;29.80;76.30
1429;DHT22;708;51.442;7.016;2022-09-02T08:42:31;29.70;75.50
1429;DHT22;708;51.442;7.016;2022-09-02T08:45:05;29.60;76.40
1429;DHT22;708;51.442;7.016;2022-09-02T08:47:35;30.30;75.20
1429;DHT22;708;51.442;7.016;2022-09-02T08:50:07;31.40;72.70
1429;DHT22;708;51.442;7.016;2022-09-02T08:55:06;30.90;69.50
1429;DHT22;708;51.442;7.016;2022-09-02T08:57:36;30.30;71.00
1429;DHT22;708;51.442;7.016;2022-09-02T09:00:07;29.30;72.30
1429;DHT22;708;51.442;7.016;2022-09-02T09:02:44;28.90;73.50
1429;DHT22;708;51.442;7.016;2022-09-02T09:05:25;28.50;74.30
1429;DHT22;708;51.442;7.016;2022-09-02T09:08:06;28.40;75.00
1429;DHT22;708;51.442;7.016;2022-09-02T09:10:39;28.80;75.00
1429;DHT22;708;51.442;7.016;2022-09-02T09:16:34;30.00;72.00
1429;DHT22;708;51.442;7.016;2022-09-02T09:19:10;30.00;71.40
1429;DHT22;708;51.442;7.016;2022-09-02T09:21:38;30.50;70.60
1429;DHT22;708;51.442;7.016;2022-09-02T09:24:19;30.90;68.50
1429;DHT22;708;51.442;7.016;2022-09-02T09:26:47;31.50;68.60
1429;DHT22;708;51.442;7.016;2022-09-02T09:29:14;31.90;68.30
1429;DHT22;708;51.442;7.016;2022-09-02T09:31:41;31.90;66.40
1429;DHT22;708;51.442;7.016;2022-09-02T09:34:14;31.60;66.00
1429;DHT22;708;51.442;7.016;2022-09-02T09:36:43;31.40;66.60
1429;DHT22;708;51.442;7.016;2022-09-02T09:39:31;31.60;65.30
1429;DHT22;708;51.442;7.016;2022-09-02T09:42:00;31.80;65.00
1429;DHT22;708;51.442;7.016;2022-09-02T09:47:14;32.10;64.60
1429;DHT22;708;51.442;7.016;2022-09-02T09:49:46;32.10;62.80
1429;DHT22;708;51.442;7.016;2022-09-02T09:52:24;31.80;62.40
1429;DHT22;708;51.442;7.016;2022-09-02T09:55:15;31.50;63.70
1429;DHT22;708;51.442;7.016;2022-09-02T09:57:46;31.00;63.10
1429;DHT22;708;51.442;7.016;2022-09-02T10:00:19;30.50;63.10
1429;DHT22;708;51.442;7.016;2022-09-02T10:02:48;30.40;64.80
1429;DHT22;708;51.442;7.016;2022-09-02T10:05:26;30.10;65.50
1429;DHT22;708;51.442;7.016;2022-09-02T10:07:55;29.70;65.80
1429;DHT22;708;51.442;7.016;2022-09-02T10:10:27;29.20;67.40
1429;DHT22;708;51.442;7.016;2022-09-02T10:12:59;28.70;69.50
1429;DHT22;708;51.442;7.016;2022-09-02T10:15:33;28.00;69.70
1429;DHT22;708;51.442;7.016;2022-09-02T10:18:13;27.50;68.50
1429;DHT22;708;51.442;7.016;2022-09-02T10:20:54;27.10;72.10
1429;DHT22;708;51.442;7.016;2022-09-02T10:23:36;27.00;71.50
1429;DHT22;708;51.442;7.016;2022-09-02T10:26:14;26.90;70.90
1429;DHT22;708;51.442;7.016;2022-09-02T10:29:05;27.00;71.20
1429;DHT22;708;51.442;7.016;2022-09-02T10:31:40;26.80;71.20
1429;DHT22;708;51.442;7.016;2022-09-02T10:34:19;26.60;72.20
1429;DHT22;708;51.442;7.016;2022-09-02T10:37:05;26.50;72.30
1429;DHT22;708;51.442;7.016;2022-09-02T10:39:46;26.50;72.50
1429;DHT22;708;51.442;7.016;2022-09-02T10:42:24;26.30;72.60
1429;DHT22;708;51.442;7.016;2022-09-02T10:45:03;26.30;72.60
1429;DHT22;708;51.442;7.016;2022-09-02T10:47:35;26.50;71.80
1429;DHT22;708;51.442;7.016;2022-09-02T10:50:16;26.50;71.50
1429;DHT22;708;51.442;7.016;2022-09-02T10:53:16;26.50;70.50
1429;DHT22;708;51.442;7.016;2022-09-02T10:55:55;26.30;70.90
1429;DHT22;708;51.442;7.016;2022-09-02T10:58:34;26.10;70.40
1429;DHT22;708;51.442;7.016;2022-09-02T11:01:02;26.20;70.80
1429;DHT22;708;51.442;7.016;2022-09-02T11:03:37;26.20;70.40
1429;DHT22;708;51.442;7.016;2022-09-02T11:06:10;26.40;69.90
1429;DHT22;708;51.442;7.016;2022-09-02T11:08:47;26.60;69.60
1429;DHT22;708;51.442;7.016;2022-09-02T11:11:17;27.00;65.90
1429;DHT22;708;51.442;7.016;2022-09-02T11:13:57;27.30;66.00
1429;DHT22;708;51.442;7.016;2022-09-02T11:16:29;27.60;65.00
1429;DHT22;708;51.442;7.016;2022-09-02T11:19:01;28.00;63.10
1429;DHT22;708;51.442;7.016;2022-09-02T11:21:41;28.00;60.60
1429;DHT22;708;51.442;7.016;2022-09-02T11:24:20;28.00;60.60
1429;DHT22;708;51.442;7.016;2022-09-02T11:26:54;28.00;59.80
1429;DHT22;708;51.442;7.016;2022-09-02T11:29:30;28.00;59.90
1429;DHT22;708;51.442;7.016;2022-09-02T11:32:04;28.10;59.50
1429;DHT22;708;51.442;7.016;2022-09-02T11:34:40;28.00;59.40
1429;DHT22;708;51.442;7.016;2022-09-02T11:37:22;28.20;59.50
1429;DHT22;708;51.442;7.016;2022-09-02T11:39:56;28.40;59.00
1429;DHT22;708;51.442;7.016;2022-09-02T11:42:35;28.50;59.00
1429;DHT22;708;51.442;7.016;2022-09-02T11:45:21;28.40;58.50
1429;DHT22;708;51.442;7.016;2022-09-02T11:47:58;28.20;58.50
1429;DHT22;708;51.442;7.016;2022-09-02T11:50:48;27.70;59.30
1429;DHT22;708;51.442;7.016;2022-09-02T11:53:21;27.70;58.80
1429;DHT22;708;51.442;7.016;2022-09-02T11:55:54;27.80;58.90
1429;DHT22;708;51.442;7.016;2022-09-02T11:58:36;27.70;58.60
1429;DHT22;708;51.442;7.016;2022-09-02T12:01:18;27.40;58.80
1429;DHT22;708;51.442;7.016;2022-09-02T12:03:51;27.20;59.20
1429;DHT22;708;51.442;7.016;2022-09-02T12:06:19;27.20;59.00
1429;DHT22;708;51.442;7.016;2022-09-02T12:09:05;27.20;59.00
1429;DHT22;708;51.442;7.016;2022-09-02T12:11:39;27.10;59.10
1429;DHT22;708;51.442;7.016;2022-09-02T12:14:08;26.90;58.50
1429;DHT22;708;51.442;7.016;2022-09-02T12:16:43;26.90;58.70
1429;DHT22;708;51.442;7.016;2022-09-02T12:19:41;26.90;58.90
1429;DHT22;708;51.442;7.016;2022-09-02T12:22:25;27.00;58.30
1429;DHT22;708;51.442;7.016;2022-09-02T12:24:53;26.90;58.40
1429;DHT22;708;51.442;7.016;2022-09-02T12:27:27;27.00;58.60
1429;DHT22;708;51.442;7.016;2022-09-02T12:29:58;27.20;57.90
1429;DHT22;708;51.442;7.016;2022-09-02T12:35:51;27.40;58.30
1429;DHT22;708;51.442;7.016;2022-09-02T12:38:30;27.20;58.20
1429;DHT22;708;51.442;7.016;2022-09-02T12:41:08;27.20;58.40
1429;DHT22;708;51.442;7.016;2022-09-02T12:43:49;27.50;58.70
1429;DHT22;708;51.442;7.016;2022-09-02T12:46:26;27.60;58.50
1429;DHT22;708;51.442;7.016;2022-09-02T12:49:04;27.50;58.70
1429;DHT22;708;51.442;7.016;2022-09-02T12:51:51;27.50;58.90
1429;DHT22;708;51.442;7.016;2022-09-02T12:54:24;27.50;58.30
1429;DHT22;708;51.442;7.016;2022-09-02T12:56:55;27.40;58.30
1429;DHT22;708;51.442;7.016;2022-09-02T12:59:27;27.20;58.10
1429;DHT22;708;51.442;7.016;2022-09-02T13:02:05;27.10;58.20
1429;DHT22;708;51.442;7.016;2022-09-02T13:04:39;27.20;57.90
1429;DHT22;708;51.442;7.016;2022-09-02T13:13:48;27.20;57.50
1429;DHT22;708;51.442;7.016;2022-09-02T13:16:32;27.40;58.20
1429;DHT22;708;51.442;7.016;2022-09-02T13:22:36;27.60;58.60
1429;DHT22;708;51.442;7.016;2022-09-02T13:25:27;27.50;58.00
1429;DHT22;708;51.442;7.016;2022-09-02T13:31:19;27.10;59.00
1429;DHT22;708;51.442;7.016;2022-09-02T13:33:55;26.80;59.10
1429;DHT22;708;51.442;7.016;2022-09-02T13:36:26;26.60;58.60
1429;DHT22;708;51.442;7.016;2022-09-02T13:38:53;26.30;58.80
1429;DHT22;708;51.442;7.016;2022-09-02T13:41:28;26.30;58.40
1429;DHT22;708;51.442;7.016;2022-09-02T13:44:04;26.40;58.20
1429;DHT22;708;51.442;7.016;2022-09-02T13:46:31;26.60;58.50
1429;DHT22;708;51.442;7.016;2022-09-02T13:49:00;26.80;57.70
1429;DHT22;708;51.442;7.016;2022-09-02T13:51:26;27.00;58.10
1429;DHT22;708;51.442;7.016;2022-09-02T13:53:57;27.10;57.60
1429;DHT22;708;51.442;7.016;2022-09-02T13:56:27;27.20;58.40
1429;DHT22;708;51.442;7.016;2022-09-02T13:58:55;27.20;57.70
1429;DHT22;708;51.442;7.016;2022-09-02T14:01:26;27.40;57.60
1429;DHT22;708;51.442;7.016;2022-09-02T14:03:55;27.50;57.70
1429;DHT22;708;51.442;7.016;2022-09-02T14:06:26;27.60;57.00
1429;DHT22;708;51.442;7.016;2022-09-02T14:08:56;27.90;56.60
1429;DHT22;708;51.442;7.016;2022-09-02T14:11:25;27.80;56.30
1429;DHT22;708;51.442;7.016;2022-09-02T14:13:53;27.90;56.40
1429;DHT22;708;51.442;7.016;2022-09-02T14:16:26;28.00;56.60
1429;DHT22;708;51.442;7.016;2022-09-02T14:19:07;28.20;56.30
1429;DHT22;708;51.442;7.016;2022-09-02T14:21:37;28.40;56.40
1429;DHT22;708;51.442;7.016;2022-09-02T14:24:10;28.30;56.40
1429;DHT22;708;51.442;7.016;2022-09-02T14:26:41;28.20;56.20
1429;DHT22;708;51.442;7.016;2022-09-02T14:29:14;27.80;56.40
1429;DHT22;708;51.442;7.016;2022-09-02T14:31:42;27.80;56.90
1429;DHT22;708;51.442;7.016;2022-09-02T14:34:30;27.80;56.90
1429;DHT22;708;51.442;7.016;2022-09-02T14:36:58;27.70;57.00
1429;DHT22;708;51.442;7.016;2022-09-02T14:39:25;27.60;57.10
1429;DHT22;708;51.442;7.016;2022-09-02T14:41:54;27.50;57.10
1429;DHT22;708;51.442;7.016;2022-09-02T14:44:25;27.40;56.20
1429;DHT22;708;51.442;7.016;2022-09-02T14:46:58;27.40;56.00
1429;DHT22;708;51.442;7.016;2022-09-02T14:49:27;27.20;55.90
1429;DHT22;708;51.442;7.016;2022-09-02T14:51:58;27.00;56.40
1429;DHT22;708;51.442;7.016;2022-09-02T14:54:39;27.20;55.90
1429;DHT22;708;51.442;7.016;2022-09-02T14:57:19;27.00;55.70
1429;DHT22;708;51.442;7.016;2022-09-02T14:59:47;27.10;56.40
1429;DHT22;708;51.442;7.016;2022-09-02T15:02:29;27.00;57.00
1429;DHT22;708;51.442;7.016;2022-09-02T15:04:58;27.10;57.30
1429;DHT22;708;51.442;7.016;2022-09-02T15:07:27;27.00;57.70
1429;DHT22;708;51.442;7.016;2022-09-02T15:09:54;26.60;57.70
1429;DHT22;708;51.442;7.016;2022-09-02T17:21:29;24.30;61.60
1429;DHT22;708;51.442;7.016;2022-09-02T17:24:00;24.30;62.10
1429;DHT22;708;51.442;7.016;2022-09-02T17:26:28;24.20;62.50
1429;DHT22;708;51.442;7.016;2022-09-02T17:28:56;24.10;62.50
1429;DHT22;708;51.442;7.016;2022-09-02T17:31:24;24.00;62.80
1429;DHT22;708;51.442;7.016;2022-09-02T17:33:53;24.00;62.90
1429;DHT22;708;51.442;7.016;2022-09-02T17:36:21;23.90;62.90
1429;DHT22;708;51.442;7.016;2022-09-02T17:38:53;23.90;62.70
1429;DHT22;708;51.442;7.016;2022-09-02T17:41:21;23.90;62.70
1429;DHT22;708;51.442;7.016;2022-09-02T17:44:05;23.80;62.90
1429;DHT22;708;51.442;7.016;2022-09-02T17:46:32;23.80;63.00
1429;DHT22;708;51.442;7.016;2022-09-02T17:48:59;23.70;63.10
1429;DHT22;708;51.442;7.016;2022-09-02T17:51:25;23.70;63.00
1429;DHT22;708;51.442;7.016;2022-09-02T17:53:52;23.60;63.20
1429;DHT22;708;51.442;7.016;2022-09-02T17:56:38;23.50;63.40
1429;DHT22;708;51.442;7.016;2022-09-02T17:59:17;23.50;63.70
1429;DHT22;708;51.442;7.016;2022-09-02T18:04:29;23.40;64.20
1429;DHT22;708;51.442;7.016;2022-09-02T18:07:03;23.40;64.50
1429;DHT22;708;51.442;7.016;2022-09-02T18:09:33;23.30;64.60
1429;DHT22;708;51.442;7.016;2022-09-02T18:12:01;23.30;64.90
1429;DHT22;708;51.442;7.016;2022-09-02T18:14:35;23.20;65.00
1429;DHT22;708;51.442;7.016;2022-09-02T18:17:16;23.10;65.20
1429;DHT22;708;51.442;7.016;2022-09-02T18:20:02;23.10;65.40
1429;DHT22;708;51.442;7.016;2022-09-02T18:22:44;23.00;65.50
1429;DHT22;708;51.442;7.016;2022-09-02T18:25:24;23.00;65.70
1429;DHT22;708;51.442;7.016;2022-09-02T18:28:06;22.90;65.80
1429;DHT22;708;51.442;7.016;2022-09-02T18:30:40;22.90;66.10
1429;DHT22;708;51.442;7.016;2022-09-02T18:33:31;22.70;66.20
1429;DHT22;708;51.442;7.016;2022-09-02T18:36:12;22.70;66.80
1429;DHT22;708;51.442;7.016;2022-09-02T18:38:48;22.60;66.60
1429;DHT22;708;51.442;7.016;2022-09-02T18:41:48;22.60;66.80
1429;DHT22;708;51.442;7.016;2022-09-02T18:44:31;22.50;67.00
1429;DHT22;708;51.442;7.016;2022-09-02T18:47:05;22.40;67.10
1429;DHT22;708;51.442;7.016;2022-09-02T18:49:36;22.40;67.30
1429;DHT22;708;51.442;7.016;2022-09-02T18:52:05;22.30;67.40
1429;DHT22;708;51.442;7.016;2022-09-02T18:54:42;22.30;67.60
1429;DHT22;708;51.442;7.016;2022-09-02T18:57:09;22.30;67.70
1429;DHT22;708;51.442;7.016;2022-09-02T18:59:43;22.30;67.90
1429;DHT22;708;51.442;7.016;2022-09-02T19:02:21;22.20;67.90
1429;DHT22;708;51.442;7.016;2022-09-02T19:04:49;22.20;68.30
1429;DHT22;708;51.442;7.016;2022-09-02T19:07:18;22.10;68.20
1429;DHT22;708;51.442;7.016;2022-09-02T19:10:04;22.00;68.30
1429;DHT22;708;51.442;7.016;2022-09-02T19:12:34;22.00;68.60
1429;DHT22;708;51.442;7.016;2022-09-02T19:15:07;21.90;68.80
1429;DHT22;708;51.442;7.016;2022-09-02T19:17:34;21.90;68.90
1429;DHT22;708;51.442;7.016;2022-09-02T19:20:01;21.80;69.10
1429;DHT22;708;51.442;7.016;2022-09-02T19:22:29;21.80;69.30